sensor_id;sensor_type;location;lat;lon;timestamp;P1;durP1;ratioP1;P2;durP2;ratioP2
14276;SDS011;7222;57.346;12.150;2022-12-18T00:01:13;58.73;;;28.97;;
14276;SDS011;7222;57.346;12.150;2022-12-18T00:03:44;57.17;;;31.83;;
14276;SDS011;7222;57.346;12.150;2022-12-18T00:06:11;56.93;;;29.50;;
14276;SDS011;7222;57.346;12.150;2022-12-18T00:08:38;50.70;;;27.03;;
14276;SDS011;7222;57.346;12.150;2022-12-18T00:11:06;53.20;;;31.07;;
14276;SDS011;7222;57.346;12.150;2022-12-18T00:13:34;51.33;;;32.50;;
14276;SDS011;7222;57.346;12.150;2022-12-18T00:16:01;55.30;;;32.30;;
14276;SDS011;7222;57.346;12.150;2022-12-18T00:18:29;61.00;;;33.63;;
14276;SDS011;7222;57.346;12.150;2022-12-18T00:20:59;57.30;;;29.60;;
14276;SDS011;7222;57.346;12.150;2022-12-18T00:23:27;52.33;;;30.67;;
14276;SDS011;7222;57.346;12.150;2022-12-18T00:25:54;54.53;;;32.90;;
14276;SDS011;7222;57.346;12.150;2022-12-18T00:28:24;52.50;;;31.17;;
14276;SDS011;7222;57.346;12.150;2022-12-18T00:30:58;57.47;;;33.17;;
14276;SDS011;7222;57.346;12.150;2022-12-18T00:33:26;49.70;;;32.23;;
14276;SDS011;7222;57.346;12.150;2022-12-18T00:35:54;48.53;;;30.90;;
14276;SDS011;7222;57.346;12.150;2022-12-18T00:38:22;48.40;;;31.03;;
14276;SDS011;7222;57.346;12.150;2022-12-18T00:40:49;47.63;;;28.80;;
14276;SDS011;7222;57.346;12.150;2022-12-18T00:43:16;49.77;;;32.70;;
14276;SDS011;7222;57.346;12.150;2022-12-18T00:45:42;48.50;;;32.43;;
14276;SDS011;7222;57.346;12.150;2022-12-18T00:48:09;46.93;;;30.00;;
14276;SDS011;7222;57.346;12.150;2022-12-18T00:50:36;50.37;;;28.47;;
14276;SDS011;7222;57.346;12.150;2022-12-18T00:53:03;54.40;;;28.73;;
14276;SDS011;7222;57.346;12.150;2022-12-18T00:55:31;49.70;;;31.30;;
14276;SDS011;7222;57.346;12.150;2022-12-18T00:57:58;47.77;;;31.43;;
14276;SDS011;7222;57.346;12.150;2022-12-18T01:00:25;47.07;;;29.00;;
14276;SDS011;7222;57.346;12.150;2022-12-18T01:02:52;46.87;;;29.90;;
14276;SDS011;7222;57.346;12.150;2022-12-18T01:05:19;57.90;;;32.83;;
14276;SDS011;7222;57.346;12.150;2022-12-18T01:07:46;52.90;;;34.43;;
14276;SDS011;7222;57.346;12.150;2022-12-18T01:10:13;60.57;;;36.50;;
14276;SDS011;7222;57.346;12.150;2022-12-18T01:12:42;62.40;;;38.07;;
14276;SDS011;7222;57.346;12.150;2022-12-18T01:15:10;64.60;;;40.00;;
14276;SDS011;7222;57.346;12.150;2022-12-18T01:17:39;69.00;;;37.10;;
14276;SDS011;7222;57.346;12.150;2022-12-18T01:20:06;63.50;;;40.70;;
14276;SDS011;7222;57.346;12.150;2022-12-18T01:22:34;68.57;;;38.63;;
14276;SDS011;7222;57.346;12.150;2022-12-18T01:25:01;62.60;;;33.60;;
14276;SDS011;7222;57.346;12.150;2022-12-18T01:27:29;61.50;;;38.53;;
14276;SDS011;7222;57.346;12.150;2022-12-18T01:29:58;66.07;;;38.77;;
14276;SDS011;7222;57.346;12.150;2022-12-18T01:32:25;61.90;;;39.40;;
14276;SDS011;7222;57.346;12.150;2022-12-18T01:34:52;71.87;;;37.20;;
14276;SDS011;7222;57.346;12.150;2022-12-18T01:37:18;77.03;;;40.73;;
14276;SDS011;7222;57.346;12.150;2022-12-18T01:39:45;77.50;;;43.03;;
14276;SDS011;7222;57.346;12.150;2022-12-18T01:42:13;77.77;;;38.80;;
14276;SDS011;7222;57.346;12.150;2022-12-18T01:47:45;78.67;;;41.50;;
14276;SDS011;7222;57.346;12.150;2022-12-18T01:50:15;86.00;;;43.33;;
14276;SDS011;7222;57.346;12.150;2022-12-18T01:52:45;93.33;;;45.90;;
14276;SDS011;7222;57.346;12.150;2022-12-18T01:55:16;100.50;;;46.57;;
14276;SDS011;7222;57.346;12.150;2022-12-18T01:57:45;95.17;;;48.53;;
14276;SDS011;7222;57.346;12.150;2022-12-18T02:00:14;92.80;;;52.87;;
14276;SDS011;7222;57.346;12.150;2022-12-18T02:02:45;98.77;;;48.13;;
14276;SDS011;7222;57.346;12.150;2022-12-18T02:05:15;90.53;;;44.87;;
14276;SDS011;7222;57.346;12.150;2022-12-18T02:07:46;91.43;;;45.97;;
14276;SDS011;7222;57.346;12.150;2022-12-18T02:10:22;79.47;;;37.60;;
14276;SDS011;7222;57.346;12.150;2022-12-18T02:12:55;91.50;;;39.97;;
14276;SDS011;7222;57.346;12.150;2022-12-18T02:15:30;101.73;;;50.57;;
14276;SDS011;7222;57.346;12.150;2022-12-18T02:18:05;94.47;;;47.80;;
14276;SDS011;7222;57.346;12.150;2022-12-18T02:20:35;94.20;;;53.70;;
14276;SDS011;7222;57.346;12.150;2022-12-18T02:23:10;85.03;;;41.00;;
14276;SDS011;7222;57.346;12.150;2022-12-18T02:28:41;98.33;;;50.50;;
14276;SDS011;7222;57.346;12.150;2022-12-18T02:31:13;84.53;;;50.30;;
14276;SDS011;7222;57.346;12.150;2022-12-18T02:33:44;90.10;;;46.30;;
14276;SDS011;7222;57.346;12.150;2022-12-18T02:36:12;94.57;;;51.87;;
14276;SDS011;7222;57.346;12.150;2022-12-18T02:38:41;101.97;;;49.37;;
14276;SDS011;7222;57.346;12.150;2022-12-18T02:41:12;98.90;;;44.53;;
14276;SDS011;7222;57.346;12.150;2022-12-18T02:43:40;92.97;;;48.07;;
14276;SDS011;7222;57.346;12.150;2022-12-18T02:46:28;99.73;;;49.60;;
14276;SDS011;7222;57.346;12.150;2022-12-18T02:49:01;95.83;;;45.53;;
14276;SDS011;7222;57.346;12.150;2022-12-18T02:51:37;94.30;;;40.63;;
14276;SDS011;7222;57.346;12.150;2022-12-18T02:54:14;89.53;;;47.77;;
14276;SDS011;7222;57.346;12.150;2022-12-18T02:57:05;84.93;;;39.87;;
14276;SDS011;7222;57.346;12.150;2022-12-18T02:59:42;87.17;;;42.13;;
14276;SDS011;7222;57.346;12.150;2022-12-18T03:02:18;83.70;;;43.17;;
14276;SDS011;7222;57.346;12.150;2022-12-18T03:04:49;82.13;;;45.93;;
14276;SDS011;7222;57.346;12.150;2022-12-18T03:07:25;77.30;;;45.07;;
14276;SDS011;7222;57.346;12.150;2022-12-18T03:09:53;77.67;;;41.27;;
14276;SDS011;7222;57.346;12.150;2022-12-18T03:12:24;87.07;;;46.77;;
14276;SDS011;7222;57.346;12.150;2022-12-18T03:14:57;87.50;;;42.77;;
14276;SDS011;7222;57.346;12.150;2022-12-18T03:17:28;83.67;;;44.10;;
14276;SDS011;7222;57.346;12.150;2022-12-18T03:19:58;92.23;;;46.50;;
14276;SDS011;7222;57.346;12.150;2022-12-18T03:22:32;105.53;;;53.60;;
14276;SDS011;7222;57.346;12.150;2022-12-18T03:25:02;96.80;;;43.37;;
14276;SDS011;7222;57.346;12.150;2022-12-18T03:27:33;108.53;;;49.47;;
14276;SDS011;7222;57.346;12.150;2022-12-18T03:30:05;115.00;;;49.07;;
14276;SDS011;7222;57.346;12.150;2022-12-18T03:32:36;102.23;;;44.90;;
14276;SDS011;7222;57.346;12.150;2022-12-18T03:35:08;101.23;;;46.80;;
14276;SDS011;7222;57.346;12.150;2022-12-18T03:37:38;103.23;;;43.40;;
14276;SDS011;7222;57.346;12.150;2022-12-18T03:40:06;92.93;;;43.33;;
14276;SDS011;7222;57.346;12.150;2022-12-18T03:42:37;94.10;;;39.93;;
14276;SDS011;7222;57.346;12.150;2022-12-18T03:45:11;100.70;;;44.67;;
14276;SDS011;7222;57.346;12.150;2022-12-18T03:47:45;92.77;;;43.80;;
14276;SDS011;7222;57.346;12.150;2022-12-18T03:50:20;92.90;;;43.17;;
14276;SDS011;7222;57.346;12.150;2022-12-18T03:52:51;89.80;;;41.63;;
14276;SDS011;7222;57.346;12.150;2022-12-18T03:55:23;84.33;;;38.67;;
14276;SDS011;7222;57.346;12.150;2022-12-18T03:57:52;86.07;;;42.40;;
14276;SDS011;7222;57.346;12.150;2022-12-18T04:00:21;81.10;;;35.63;;
14276;SDS011;7222;57.346;12.150;2022-12-18T04:02:48;75.73;;;38.10;;
14276;SDS011;7222;57.346;12.150;2022-12-18T04:05:18;85.20;;;39.30;;
14276;SDS011;7222;57.346;12.150;2022-12-18T04:07:47;70.97;;;38.20;;
14276;SDS011;7222;57.346;12.150;2022-12-18T04:10:16;78.70;;;38.00;;
14276;SDS011;7222;57.346;12.150;2022-12-18T04:12:43;69.20;;;29.97;;
14276;SDS011;7222;57.346;12.150;2022-12-18T04:15:12;70.20;;;37.00;;
14276;SDS011;7222;57.346;12.150;2022-12-18T04:17:41;71.37;;;33.13;;
14276;SDS011;7222;57.346;12.150;2022-12-18T04:20:13;59.13;;;28.50;;
14276;SDS011;7222;57.346;12.150;2022-12-18T04:22:40;70.67;;;32.27;;
14276;SDS011;7222;57.346;12.150;2022-12-18T04:25:08;64.60;;;28.60;;
14276;SDS011;7222;57.346;12.150;2022-12-18T04:27:39;58.23;;;30.70;;
14276;SDS011;7222;57.346;12.150;2022-12-18T04:30:06;69.00;;;36.00;;
14276;SDS011;7222;57.346;12.150;2022-12-18T04:32:35;69.43;;;32.57;;
14276;SDS011;7222;57.346;12.150;2022-12-18T04:35:02;63.67;;;32.03;;
14276;SDS011;7222;57.346;12.150;2022-12-18T04:37:31;65.07;;;30.93;;
14276;SDS011;7222;57.346;12.150;2022-12-18T04:39:58;67.33;;;31.07;;
14276;SDS011;7222;57.346;12.150;2022-12-18T04:42:25;62.47;;;29.43;;
14276;SDS011;7222;57.346;12.150;2022-12-18T04:44:52;66.27;;;30.30;;
14276;SDS011;7222;57.346;12.150;2022-12-18T04:47:19;69.17;;;28.37;;
14276;SDS011;7222;57.346;12.150;2022-12-18T04:49:47;68.37;;;32.97;;
14276;SDS011;7222;57.346;12.150;2022-12-18T04:52:14;64.37;;;27.90;;
14276;SDS011;7222;57.346;12.150;2022-12-18T04:54:41;63.77;;;28.93;;
14276;SDS011;7222;57.346;12.150;2022-12-18T04:57:08;67.13;;;28.43;;
14276;SDS011;7222;57.346;12.150;2022-12-18T04:59:35;64.83;;;32.77;;
14276;SDS011;7222;57.346;12.150;2022-12-18T05:02:02;64.60;;;26.37;;
14276;SDS011;7222;57.346;12.150;2022-12-18T05:04:29;58.83;;;24.73;;
14276;SDS011;7222;57.346;12.150;2022-12-18T05:06:57;56.87;;;27.17;;
14276;SDS011;7222;57.346;12.150;2022-12-18T05:09:24;52.77;;;23.40;;
14276;SDS011;7222;57.346;12.150;2022-12-18T05:11:51;53.00;;;24.43;;
14276;SDS011;7222;57.346;12.150;2022-12-18T05:14:18;45.40;;;21.37;;
14276;SDS011;7222;57.346;12.150;2022-12-18T05:16:46;46.43;;;21.07;;
14276;SDS011;7222;57.346;12.150;2022-12-18T05:19:13;49.93;;;21.83;;
14276;SDS011;7222;57.346;12.150;2022-12-18T05:21:39;45.33;;;23.50;;
14276;SDS011;7222;57.346;12.150;2022-12-18T05:24:08;48.97;;;22.70;;
14276;SDS011;7222;57.346;12.150;2022-12-18T05:26:35;49.33;;;23.43;;
14276;SDS011;7222;57.346;12.150;2022-12-18T05:29:02;46.67;;;21.10;;
14276;SDS011;7222;57.346;12.150;2022-12-18T05:31:29;50.60;;;21.53;;
14276;SDS011;7222;57.346;12.150;2022-12-18T05:33:56;47.87;;;22.97;;
14276;SDS011;7222;57.346;12.150;2022-12-18T05:36:23;46.90;;;23.23;;
14276;SDS011;7222;57.346;12.150;2022-12-18T05:38:50;47.80;;;20.43;;
14276;SDS011;7222;57.346;12.150;2022-12-18T05:41:19;48.43;;;22.80;;
14276;SDS011;7222;57.346;12.150;2022-12-18T05:43:46;44.33;;;21.13;;
14276;SDS011;7222;57.346;12.150;2022-12-18T05:46:14;47.03;;;24.20;;
14276;SDS011;7222;57.346;12.150;2022-12-18T05:48:43;49.53;;;25.33;;
14276;SDS011;7222;57.346;12.150;2022-12-18T05:51:11;41.23;;;22.73;;
14276;SDS011;7222;57.346;12.150;2022-12-18T05:53:40;45.80;;;25.03;;
14276;SDS011;7222;57.346;12.150;2022-12-18T05:56:08;48.07;;;22.63;;
14276;SDS011;7222;57.346;12.150;2022-12-18T05:58:39;47.17;;;23.57;;
14276;SDS011;7222;57.346;12.150;2022-12-18T06:01:06;47.57;;;20.53;;
14276;SDS011;7222;57.346;12.150;2022-12-18T06:03:35;42.17;;;18.67;;
14276;SDS011;7222;57.346;12.150;2022-12-18T06:06:02;46.67;;;21.47;;
14276;SDS011;7222;57.346;12.150;2022-12-18T06:08:29;50.43;;;21.73;;
14276;SDS011;7222;57.346;12.150;2022-12-18T06:10:57;47.83;;;22.50;;
14276;SDS011;7222;57.346;12.150;2022-12-18T06:13:24;46.10;;;24.30;;
14276;SDS011;7222;57.346;12.150;2022-12-18T06:15:52;45.67;;;21.87;;
14276;SDS011;7222;57.346;12.150;2022-12-18T06:18:19;41.63;;;18.57;;
14276;SDS011;7222;57.346;12.150;2022-12-18T06:20:53;50.53;;;22.37;;
14276;SDS011;7222;57.346;12.150;2022-12-18T06:23:21;44.27;;;19.83;;
14276;SDS011;7222;57.346;12.150;2022-12-18T06:25:48;40.27;;;19.17;;
14276;SDS011;7222;57.346;12.150;2022-12-18T06:28:15;47.77;;;19.10;;
14276;SDS011;7222;57.346;12.150;2022-12-18T06:30:42;43.57;;;21.00;;
14276;SDS011;7222;57.346;12.150;2022-12-18T06:33:11;33.93;;;16.90;;
14276;SDS011;7222;57.346;12.150;2022-12-18T06:35:38;42.93;;;19.50;;
14276;SDS011;7222;57.346;12.150;2022-12-18T06:38:05;43.57;;;20.63;;
14276;SDS011;7222;57.346;12.150;2022-12-18T06:40:32;37.83;;;16.77;;
14276;SDS011;7222;57.346;12.150;2022-12-18T06:43:00;41.03;;;17.00;;
14276;SDS011;7222;57.346;12.150;2022-12-18T06:45:26;43.80;;;19.03;;
14276;SDS011;7222;57.346;12.150;2022-12-18T06:47:53;37.30;;;18.10;;
14276;SDS011;7222;57.346;12.150;2022-12-18T06:50:22;29.00;;;11.63;;
14276;SDS011;7222;57.346;12.150;2022-12-18T06:52:48;26.83;;;13.33;;
14276;SDS011;7222;57.346;12.150;2022-12-18T06:55:15;23.53;;;14.20;;
14276;SDS011;7222;57.346;12.150;2022-12-18T06:57:42;24.80;;;11.30;;
14276;SDS011;7222;57.346;12.150;2022-12-18T07:00:10;26.57;;;12.13;;
14276;SDS011;7222;57.346;12.150;2022-12-18T07:02:37;27.70;;;11.93;;
14276;SDS011;7222;57.346;12.150;2022-12-18T07:05:05;28.60;;;15.37;;
14276;SDS011;7222;57.346;12.150;2022-12-18T07:07:34;35.83;;;15.23;;
14276;SDS011;7222;57.346;12.150;2022-12-18T07:10:02;30.27;;;13.43;;
14276;SDS011;7222;57.346;12.150;2022-12-18T07:12:29;37.30;;;15.70;;
14276;SDS011;7222;57.346;12.150;2022-12-18T07:14:56;29.97;;;13.17;;
14276;SDS011;7222;57.346;12.150;2022-12-18T07:17:23;28.30;;;10.83;;
14276;SDS011;7222;57.346;12.150;2022-12-18T07:19:50;25.63;;;11.53;;
14276;SDS011;7222;57.346;12.150;2022-12-18T07:22:17;29.67;;;12.17;;
14276;SDS011;7222;57.346;12.150;2022-12-18T07:24:45;27.07;;;12.83;;
14276;SDS011;7222;57.346;12.150;2022-12-18T07:27:15;24.17;;;12.63;;
14276;SDS011;7222;57.346;12.150;2022-12-18T07:29:42;28.33;;;11.63;;
14276;SDS011;7222;57.346;12.150;2022-12-18T07:32:09;48.40;;;21.47;;
14276;SDS011;7222;57.346;12.150;2022-12-18T07:34:36;38.27;;;18.23;;
14276;SDS011;7222;57.346;12.150;2022-12-18T07:37:03;30.23;;;13.67;;
14276;SDS011;7222;57.346;12.150;2022-12-18T07:39:30;37.30;;;17.93;;
14276;SDS011;7222;57.346;12.150;2022-12-18T07:41:59;39.17;;;18.67;;
14276;SDS011;7222;57.346;12.150;2022-12-18T07:44:43;38.67;;;19.00;;
14276;SDS011;7222;57.346;12.150;2022-12-18T07:47:10;34.30;;;17.07;;
14276;SDS011;7222;57.346;12.150;2022-12-18T07:49:37;27.63;;;12.97;;
14276;SDS011;7222;57.346;12.150;2022-12-18T07:52:04;38.90;;;19.63;;
14276;SDS011;7222;57.346;12.150;2022-12-18T07:54:31;45.60;;;20.07;;
14276;SDS011;7222;57.346;12.150;2022-12-18T07:57:00;43.17;;;22.47;;
14276;SDS011;7222;57.346;12.150;2022-12-18T07:59:27;44.37;;;20.20;;
14276;SDS011;7222;57.346;12.150;2022-12-18T08:01:54;42.63;;;25.27;;
14276;SDS011;7222;57.346;12.150;2022-12-18T08:04:21;48.67;;;26.83;;
14276;SDS011;7222;57.346;12.150;2022-12-18T08:06:48;46.53;;;20.73;;
14276;SDS011;7222;57.346;12.150;2022-12-18T08:09:15;53.40;;;25.97;;
14276;SDS011;7222;57.346;12.150;2022-12-18T08:11:42;45.93;;;20.43;;
14276;SDS011;7222;57.346;12.150;2022-12-18T08:14:10;50.97;;;23.97;;
14276;SDS011;7222;57.346;12.150;2022-12-18T08:16:37;46.43;;;23.80;;
14276;SDS011;7222;57.346;12.150;2022-12-18T08:19:04;44.80;;;22.10;;
14276;SDS011;7222;57.346;12.150;2022-12-18T08:21:31;50.13;;;21.80;;
14276;SDS011;7222;57.346;12.150;2022-12-18T08:23:59;50.17;;;24.37;;
14276;SDS011;7222;57.346;12.150;2022-12-18T08:26:27;49.63;;;23.63;;
14276;SDS011;7222;57.346;12.150;2022-12-18T08:28:55;43.40;;;16.20;;
14276;SDS011;7222;57.346;12.150;2022-12-18T08:31:25;46.90;;;22.53;;
14276;SDS011;7222;57.346;12.150;2022-12-18T08:33:53;53.43;;;22.00;;
14276;SDS011;7222;57.346;12.150;2022-12-18T08:36:21;52.47;;;19.97;;
14276;SDS011;7222;57.346;12.150;2022-12-18T08:38:48;44.37;;;23.47;;
14276;SDS011;7222;57.346;12.150;2022-12-18T08:41:15;50.03;;;21.60;;
14276;SDS011;7222;57.346;12.150;2022-12-18T08:43:43;53.23;;;24.67;;
14276;SDS011;7222;57.346;12.150;2022-12-18T08:46:31;55.30;;;27.10;;
14276;SDS011;7222;57.346;12.150;2022-12-18T08:49:00;47.80;;;24.57;;
14276;SDS011;7222;57.346;12.150;2022-12-18T08:51:27;54.40;;;23.80;;
14276;SDS011;7222;57.346;12.150;2022-12-18T08:53:54;57.43;;;25.13;;
14276;SDS011;7222;57.346;12.150;2022-12-18T08:56:21;50.57;;;24.37;;
14276;SDS011;7222;57.346;12.150;2022-12-18T08:58:50;47.83;;;23.37;;
14276;SDS011;7222;57.346;12.150;2022-12-18T09:01:18;41.60;;;20.03;;
14276;SDS011;7222;57.346;12.150;2022-12-18T09:03:49;50.73;;;19.63;;
14276;SDS011;7222;57.346;12.150;2022-12-18T09:06:17;41.83;;;18.60;;
14276;SDS011;7222;57.346;12.150;2022-12-18T09:08:46;43.73;;;18.63;;
14276;SDS011;7222;57.346;12.150;2022-12-18T09:11:14;43.80;;;19.57;;
14276;SDS011;7222;57.346;12.150;2022-12-18T09:13:44;39.50;;;16.60;;
14276;SDS011;7222;57.346;12.150;2022-12-18T09:16:11;38.23;;;17.30;;
14276;SDS011;7222;57.346;12.150;2022-12-18T09:18:38;40.87;;;19.03;;
14276;SDS011;7222;57.346;12.150;2022-12-18T09:21:11;45.63;;;18.77;;
14276;SDS011;7222;57.346;12.150;2022-12-18T09:23:39;39.97;;;19.70;;
14276;SDS011;7222;57.346;12.150;2022-12-18T09:26:06;49.33;;;23.13;;
14276;SDS011;7222;57.346;12.150;2022-12-18T09:28:33;43.23;;;22.67;;
14276;SDS011;7222;57.346;12.150;2022-12-18T09:31:03;47.77;;;22.53;;
14276;SDS011;7222;57.346;12.150;2022-12-18T09:33:32;48.00;;;21.47;;
14276;SDS011;7222;57.346;12.150;2022-12-18T09:36:01;47.33;;;19.70;;
14276;SDS011;7222;57.346;12.150;2022-12-18T09:38:30;46.97;;;21.50;;
14276;SDS011;7222;57.346;12.150;2022-12-18T09:40:59;42.43;;;20.07;;
14276;SDS011;7222;57.346;12.150;2022-12-18T09:43:34;44.27;;;17.97;;
14276;SDS011;7222;57.346;12.150;2022-12-18T09:46:06;42.43;;;17.90;;
14276;SDS011;7222;57.346;12.150;2022-12-18T09:48:36;48.50;;;23.43;;
14276;SDS011;7222;57.346;12.150;2022-12-18T09:51:09;42.60;;;17.80;;
14276;SDS011;7222;57.346;12.150;2022-12-18T09:53:47;50.27;;;22.30;;
14276;SDS011;7222;57.346;12.150;2022-12-18T09:56:20;50.40;;;21.10;;
14276;SDS011;7222;57.346;12.150;2022-12-18T09:58:51;48.30;;;24.30;;
14276;SDS011;7222;57.346;12.150;2022-12-18T10:01:22;51.43;;;22.50;;
14276;SDS011;7222;57.346;12.150;2022-12-18T10:03:50;54.20;;;23.77;;
14276;SDS011;7222;57.346;12.150;2022-12-18T10:06:18;46.83;;;23.40;;
14276;SDS011;7222;57.346;12.150;2022-12-18T10:08:53;43.83;;;21.23;;
14276;SDS011;7222;57.346;12.150;2022-12-18T10:11:30;48.30;;;20.90;;
14276;SDS011;7222;57.346;12.150;2022-12-18T10:14:08;45.20;;;23.83;;
14276;SDS011;7222;57.346;12.150;2022-12-18T10:16:47;48.00;;;22.23;;
14276;SDS011;7222;57.346;12.150;2022-12-18T10:19:28;37.70;;;21.20;;
14276;SDS011;7222;57.346;12.150;2022-12-18T10:22:07;41.10;;;21.43;;
14276;SDS011;7222;57.346;12.150;2022-12-18T10:24:46;45.07;;;18.97;;
14276;SDS011;7222;57.346;12.150;2022-12-18T10:27:18;41.23;;;18.53;;
14276;SDS011;7222;57.346;12.150;2022-12-18T10:29:49;45.90;;;19.03;;
14276;SDS011;7222;57.346;12.150;2022-12-18T10:32:17;38.83;;;18.40;;
14276;SDS011;7222;57.346;12.150;2022-12-18T10:34:46;43.63;;;22.57;;
14276;SDS011;7222;57.346;12.150;2022-12-18T10:37:15;45.17;;;21.13;;
14276;SDS011;7222;57.346;12.150;2022-12-18T10:39:46;50.63;;;21.30;;
14276;SDS011;7222;57.346;12.150;2022-12-18T10:42:30;46.10;;;20.73;;
14276;SDS011;7222;57.346;12.150;2022-12-18T10:45:00;44.60;;;24.23;;
14276;SDS011;7222;57.346;12.150;2022-12-18T10:47:28;41.17;;;18.87;;
14276;SDS011;7222;57.346;12.150;2022-12-18T10:49:55;44.63;;;22.07;;
14276;SDS011;7222;57.346;12.150;2022-12-18T10:52:23;42.57;;;17.73;;
14276;SDS011;7222;57.346;12.150;2022-12-18T10:54:54;47.97;;;19.73;;
14276;SDS011;7222;57.346;12.150;2022-12-18T10:57:30;34.90;;;17.70;;
14276;SDS011;7222;57.346;12.150;2022-12-18T11:00:03;36.27;;;16.90;;
14276;SDS011;7222;57.346;12.150;2022-12-18T11:02:54;27.10;;;13.87;;
14276;SDS011;7222;57.346;12.150;2022-12-18T11:05:23;22.10;;;10.40;;
14276;SDS011;7222;57.346;12.150;2022-12-18T11:07:53;27.83;;;10.23;;
14276;SDS011;7222;57.346;12.150;2022-12-18T11:10:23;22.20;;;10.60;;
14276;SDS011;7222;57.346;12.150;2022-12-18T11:12:54;27.80;;;12.17;;
14276;SDS011;7222;57.346;12.150;2022-12-18T11:15:22;20.80;;;8.17;;
14276;SDS011;7222;57.346;12.150;2022-12-18T11:17:54;21.53;;;8.93;;
14276;SDS011;7222;57.346;12.150;2022-12-18T11:20:27;19.40;;;10.30;;
14276;SDS011;7222;57.346;12.150;2022-12-18T11:22:58;23.83;;;11.47;;
14276;SDS011;7222;57.346;12.150;2022-12-18T11:25:32;17.97;;;9.80;;
14276;SDS011;7222;57.346;12.150;2022-12-18T11:28:00;21.23;;;11.07;;
14276;SDS011;7222;57.346;12.150;2022-12-18T11:30:29;21.60;;;9.97;;
14276;SDS011;7222;57.346;12.150;2022-12-18T11:32:59;17.60;;;9.33;;
14276;SDS011;7222;57.346;12.150;2022-12-18T11:35:35;25.20;;;10.10;;
14276;SDS011;7222;57.346;12.150;2022-12-18T11:38:14;21.17;;;9.43;;
14276;SDS011;7222;57.346;12.150;2022-12-18T11:40:50;18.67;;;8.43;;
14276;SDS011;7222;57.346;12.150;2022-12-18T11:43:21;18.23;;;10.83;;
14276;SDS011;7222;57.346;12.150;2022-12-18T11:45:54;16.83;;;8.53;;
14276;SDS011;7222;57.346;12.150;2022-12-18T11:48:26;21.37;;;9.47;;
14276;SDS011;7222;57.346;12.150;2022-12-18T11:50:56;16.60;;;9.87;;
14276;SDS011;7222;57.346;12.150;2022-12-18T11:53:25;25.80;;;11.10;;
14276;SDS011;7222;57.346;12.150;2022-12-18T11:55:58;20.13;;;10.10;;
14276;SDS011;7222;57.346;12.150;2022-12-18T12:01:29;25.73;;;12.30;;
14276;SDS011;7222;57.346;12.150;2022-12-18T12:04:10;26.33;;;13.83;;
14276;SDS011;7222;57.346;12.150;2022-12-18T12:06:59;26.77;;;11.73;;
14276;SDS011;7222;57.346;12.150;2022-12-18T12:09:37;24.63;;;11.40;;
14276;SDS011;7222;57.346;12.150;2022-12-18T12:12:20;25.83;;;13.57;;
14276;SDS011;7222;57.346;12.150;2022-12-18T12:15:12;24.77;;;13.37;;
14276;SDS011;7222;57.346;12.150;2022-12-18T12:17:49;24.77;;;10.10;;
14276;SDS011;7222;57.346;12.150;2022-12-18T12:20:23;25.33;;;11.73;;
14276;SDS011;7222;57.346;12.150;2022-12-18T12:23:00;22.10;;;11.17;;
14276;SDS011;7222;57.346;12.150;2022-12-18T12:25:33;23.13;;;10.83;;
14276;SDS011;7222;57.346;12.150;2022-12-18T12:28:12;22.03;;;12.40;;
14276;SDS011;7222;57.346;12.150;2022-12-18T12:30:47;28.23;;;12.80;;
14276;SDS011;7222;57.346;12.150;2022-12-18T12:33:26;22.77;;;11.77;;
14276;SDS011;7222;57.346;12.150;2022-12-18T12:36:04;22.63;;;11.70;;
14276;SDS011;7222;57.346;12.150;2022-12-18T12:38:42;29.57;;;12.67;;
14276;SDS011;7222;57.346;12.150;2022-12-18T12:41:12;26.23;;;11.83;;
14276;SDS011;7222;57.346;12.150;2022-12-18T12:43:58;27.67;;;14.03;;
14276;SDS011;7222;57.346;12.150;2022-12-18T12:46:29;26.60;;;11.60;;
14276;SDS011;7222;57.346;12.150;2022-12-18T12:49:01;30.57;;;12.73;;
14276;SDS011;7222;57.346;12.150;2022-12-18T12:51:31;28.93;;;12.73;;
14276;SDS011;7222;57.346;12.150;2022-12-18T12:54:01;28.47;;;13.73;;
14276;SDS011;7222;57.346;12.150;2022-12-18T12:56:34;28.30;;;14.00;;
14276;SDS011;7222;57.346;12.150;2022-12-18T12:59:10;30.63;;;13.83;;
14276;SDS011;7222;57.346;12.150;2022-12-18T13:01:47;25.50;;;11.37;;
14276;SDS011;7222;57.346;12.150;2022-12-18T13:04:21;32.77;;;14.17;;
14276;SDS011;7222;57.346;12.150;2022-12-18T13:06:55;33.73;;;14.43;;
14276;SDS011;7222;57.346;12.150;2022-12-18T13:09:29;30.87;;;13.83;;
14276;SDS011;7222;57.346;12.150;2022-12-18T13:12:03;35.97;;;16.37;;
14276;SDS011;7222;57.346;12.150;2022-12-18T13:14:50;34.23;;;16.20;;
14276;SDS011;7222;57.346;12.150;2022-12-18T13:17:22;30.07;;;14.83;;
14276;SDS011;7222;57.346;12.150;2022-12-18T13:20:02;31.37;;;14.07;;
14276;SDS011;7222;57.346;12.150;2022-12-18T13:22:35;34.30;;;16.63;;
14276;SDS011;7222;57.346;12.150;2022-12-18T13:28:00;36.57;;;18.07;;
14276;SDS011;7222;57.346;12.150;2022-12-18T13:36:13;37.27;;;16.13;;
14276;SDS011;7222;57.346;12.150;2022-12-18T13:41:50;33.30;;;14.00;;
14276;SDS011;7222;57.346;12.150;2022-12-18T13:44:25;42.20;;;18.07;;
14276;SDS011;7222;57.346;12.150;2022-12-18T13:46:59;37.97;;;20.43;;
14276;SDS011;7222;57.346;12.150;2022-12-18T13:49:30;39.50;;;19.37;;
14276;SDS011;7222;57.346;12.150;2022-12-18T13:52:10;40.57;;;20.70;;
14276;SDS011;7222;57.346;12.150;2022-12-18T13:54:43;45.93;;;21.53;;
14276;SDS011;7222;57.346;12.150;2022-12-18T13:57:25;47.63;;;22.60;;
14276;SDS011;7222;57.346;12.150;2022-12-18T13:59:53;51.77;;;23.97;;
14276;SDS011;7222;57.346;12.150;2022-12-18T14:02:23;60.07;;;27.40;;
14276;SDS011;7222;57.346;12.150;2022-12-18T14:04:51;49.87;;;20.53;;
14276;SDS011;7222;57.346;12.150;2022-12-18T14:07:18;64.37;;;30.73;;
14276;SDS011;7222;57.346;12.150;2022-12-18T14:09:49;49.30;;;20.63;;
14276;SDS011;7222;57.346;12.150;2022-12-18T14:12:18;62.50;;;30.83;;
14276;SDS011;7222;57.346;12.150;2022-12-18T14:15:06;61.57;;;26.27;;
14276;SDS011;7222;57.346;12.150;2022-12-18T14:17:50;62.77;;;26.47;;
14276;SDS011;7222;57.346;12.150;2022-12-18T14:20:18;64.43;;;30.83;;
14276;SDS011;7222;57.346;12.150;2022-12-18T14:22:46;71.17;;;30.10;;
14276;SDS011;7222;57.346;12.150;2022-12-18T14:25:15;62.90;;;26.57;;
14276;SDS011;7222;57.346;12.150;2022-12-18T14:27:45;62.40;;;27.93;;
14276;SDS011;7222;57.346;12.150;2022-12-18T14:30:23;64.57;;;27.73;;
14276;SDS011;7222;57.346;12.150;2022-12-18T14:33:02;65.13;;;25.33;;
14276;SDS011;7222;57.346;12.150;2022-12-18T14:35:30;61.67;;;27.30;;
14276;SDS011;7222;57.346;12.150;2022-12-18T14:38:11;69.60;;;30.33;;
14276;SDS011;7222;57.346;12.150;2022-12-18T14:40:47;73.93;;;34.67;;
14276;SDS011;7222;57.346;12.150;2022-12-18T14:43:17;64.47;;;28.23;;
14276;SDS011;7222;57.346;12.150;2022-12-18T14:45:45;58.47;;;21.83;;
14276;SDS011;7222;57.346;12.150;2022-12-18T14:48:15;75.87;;;32.73;;
14276;SDS011;7222;57.346;12.150;2022-12-18T14:50:44;70.47;;;27.97;;
14276;SDS011;7222;57.346;12.150;2022-12-18T14:53:20;78.83;;;33.07;;
14276;SDS011;7222;57.346;12.150;2022-12-18T14:55:53;71.37;;;31.07;;
14276;SDS011;7222;57.346;12.150;2022-12-18T14:58:21;68.03;;;29.10;;
14276;SDS011;7222;57.346;12.150;2022-12-18T15:00:49;71.47;;;28.57;;